Puerto Barrios, Guatemala

9:46 PM CST on August 27, 2015 (GMT -0600)
Puerto Barrios | | Change Station
CLOSE
Current Station
Airport
Location: Puerto Barrios,
Elevation: 3 ft
Nearby Weather Stations

Elev 3 ft 15.73 °N, 88.58 °W | Updated 46 minutes ago

Scattered Clouds
Scattered Clouds
81 °F
Feels Like 86 °F
N
0
Wind Variable Wind from North

Today
High -- | Low -- °F
--% Chance of Precip.
Yesterday
High -- | Low -- °F
Precip. -- in
5:41 AM 6:10 PM
Waxing Gibbous, 96% visible
Pressure 29.92 in
Visibility 6.2 miles
Clouds Few 1800 ft
Scattered Clouds 20000 ft
Heat Index 86 °F
Dew Point 75 °F
Humidity 84%
Rainfall 0.00 in
Snow Depth Not available.
UV 0 out of 12
Pollen Not available.
Air Quality Not available.
Flu Activity Not available.
METAR MGPB 280300Z 00000KT 9999 FEW018 SCT200 27/24 Q1013 A2991
Pressure 29.92 in
Visibility 6.2 miles
Clouds Few 1800 ft
Scattered Clouds 20000 ft
Heat Index 86 °F
Dew Point 75 °F
Humidity 84%
Rainfall 0.00 in
Snow Depth Not available.
UV 0 out of 12
Pollen Not available.
Air Quality Not available.
Flu Activity Not available.
METAR MGPB 280300Z 00000KT 9999 FEW018 SCT200 27/24 Q1013 A2991

10-Day Weather Forecast

×

Almanac

Astronomy

Aug. 27, 2015 Rise Set
Actual Time
Civil Twilight
Nautical Twilight
Astronomical Twilight
Moon
Length of Visible Light
Length of Day
Tomorrow will be .
, % of the Moon is Illuminated

Today's Extremes

Country Highs Country Lows

Community

WunderPhotos

Upload Photos

1,850,317 photos uploaded!

WunderBlogs® & News

Nearby

Air Quality

  Air Quality AQ Index Pollutant
Not available.

Snow Depth

Station Depth Elevation

Earthquake Activity

City Distance Mag. Time & Date
Minimum magnitude displayed is 2.5.

Coastal Water Temperatures

Place Temperature

Stations

Nearby Weather Stations

Station Location Temp. Windchill Dew Point Humidity Wind Precip. Elev Updated Type